sensor_id;sensor_type;location;lat;lon;timestamp;P1;durP1;ratioP1;P2;durP2;ratioP2
49860;SDS011;35761;48.826;9.238;2022-12-10T00:01:46;37.22;;;21.02;;
49860;SDS011;35761;48.826;9.238;2022-12-10T00:04:17;37.45;;;22.75;;
49860;SDS011;35761;48.826;9.238;2022-12-10T00:06:47;36.47;;;20.85;;
49860;SDS011;35761;48.826;9.238;2022-12-10T00:09:16;36.65;;;21.20;;
49860;SDS011;35761;48.826;9.238;2022-12-10T00:11:46;33.67;;;20.58;;
49860;SDS011;35761;48.826;9.238;2022-12-10T00:14:15;36.53;;;21.98;;
49860;SDS011;35761;48.826;9.238;2022-12-10T00:16:44;32.25;;;21.05;;
49860;SDS011;35761;48.826;9.238;2022-12-10T00:19:12;38.00;;;22.58;;
49860;SDS011;35761;48.826;9.238;2022-12-10T00:21:42;35.92;;;21.45;;
49860;SDS011;35761;48.826;9.238;2022-12-10T00:24:12;31.70;;;19.58;;
49860;SDS011;35761;48.826;9.238;2022-12-10T00:26:41;34.67;;;21.20;;
49860;SDS011;35761;48.826;9.238;2022-12-10T00:29:12;34.88;;;20.63;;
49860;SDS011;35761;48.826;9.238;2022-12-10T00:31:41;39.25;;;21.48;;
49860;SDS011;35761;48.826;9.238;2022-12-10T00:34:11;32.88;;;20.42;;
49860;SDS011;35761;48.826;9.238;2022-12-10T00:36:40;33.97;;;20.67;;
49860;SDS011;35761;48.826;9.238;2022-12-10T00:39:12;33.95;;;20.42;;
49860;SDS011;35761;48.826;9.238;2022-12-10T00:41:42;32.22;;;19.77;;
49860;SDS011;35761;48.826;9.238;2022-12-10T00:44:11;32.72;;;21.13;;
49860;SDS011;35761;48.826;9.238;2022-12-10T00:46:40;37.97;;;21.17;;
49860;SDS011;35761;48.826;9.238;2022-12-10T00:49:09;33.90;;;20.95;;
49860;SDS011;35761;48.826;9.238;2022-12-10T00:51:38;37.60;;;21.30;;
49860;SDS011;35761;48.826;9.238;2022-12-10T00:54:08;32.28;;;20.02;;
49860;SDS011;35761;48.826;9.238;2022-12-10T00:56:37;33.10;;;19.48;;
49860;SDS011;35761;48.826;9.238;2022-12-10T00:59:06;34.42;;;20.60;;
49860;SDS011;35761;48.826;9.238;2022-12-10T01:01:35;36.97;;;20.83;;
49860;SDS011;35761;48.826;9.238;2022-12-10T01:04:06;36.53;;;19.80;;
49860;SDS011;35761;48.826;9.238;2022-12-10T01:06:40;34.90;;;19.85;;
49860;SDS011;35761;48.826;9.238;2022-12-10T01:09:12;33.65;;;19.67;;
49860;SDS011;35761;48.826;9.238;2022-12-10T01:11:43;37.67;;;21.00;;
49860;SDS011;35761;48.826;9.238;2022-12-10T01:14:13;31.50;;;20.10;;
49860;SDS011;35761;48.826;9.238;2022-12-10T01:16:46;29.25;;;19.15;;
49860;SDS011;35761;48.826;9.238;2022-12-10T01:19:15;34.88;;;20.73;;
49860;SDS011;35761;48.826;9.238;2022-12-10T01:21:44;35.97;;;19.33;;
49860;SDS011;35761;48.826;9.238;2022-12-10T01:24:18;30.92;;;18.52;;
49860;SDS011;35761;48.826;9.238;2022-12-10T01:26:46;37.60;;;20.70;;
49860;SDS011;35761;48.826;9.238;2022-12-10T01:29:15;30.80;;;18.52;;
49860;SDS011;35761;48.826;9.238;2022-12-10T01:31:44;35.47;;;20.40;;
49860;SDS011;35761;48.826;9.238;2022-12-10T01:34:14;30.70;;;19.42;;
49860;SDS011;35761;48.826;9.238;2022-12-10T01:36:44;32.28;;;19.42;;
49860;SDS011;35761;48.826;9.238;2022-12-10T01:39:16;32.65;;;20.50;;
49860;SDS011;35761;48.826;9.238;2022-12-10T01:41:48;33.53;;;19.88;;
49860;SDS011;35761;48.826;9.238;2022-12-10T01:47:28;32.58;;;19.60;;
49860;SDS011;35761;48.826;9.238;2022-12-10T01:49:58;31.13;;;19.65;;
49860;SDS011;35761;48.826;9.238;2022-12-10T01:52:28;34.92;;;21.45;;
49860;SDS011;35761;48.826;9.238;2022-12-10T01:54:58;34.97;;;20.05;;
49860;SDS011;35761;48.826;9.238;2022-12-10T01:57:27;33.38;;;18.65;;
49860;SDS011;35761;48.826;9.238;2022-12-10T01:59:58;32.40;;;19.23;;
49860;SDS011;35761;48.826;9.238;2022-12-10T02:02:42;31.58;;;19.83;;
49860;SDS011;35761;48.826;9.238;2022-12-10T02:05:17;35.03;;;19.58;;
49860;SDS011;35761;48.826;9.238;2022-12-10T02:07:54;36.92;;;21.25;;
49860;SDS011;35761;48.826;9.238;2022-12-10T02:10:34;31.27;;;18.83;;
49860;SDS011;35761;48.826;9.238;2022-12-10T02:13:10;35.10;;;20.50;;
49860;SDS011;35761;48.826;9.238;2022-12-10T02:15:43;31.05;;;18.80;;
49860;SDS011;35761;48.826;9.238;2022-12-10T02:18:17;32.70;;;19.58;;
49860;SDS011;35761;48.826;9.238;2022-12-10T02:20:49;30.02;;;19.40;;
49860;SDS011;35761;48.826;9.238;2022-12-10T02:23:21;31.75;;;19.98;;
49860;SDS011;35761;48.826;9.238;2022-12-10T02:25:54;28.50;;;18.27;;
49860;SDS011;35761;48.826;9.238;2022-12-10T02:28:29;29.55;;;18.65;;
49860;SDS011;35761;48.826;9.238;2022-12-10T02:31:03;29.98;;;18.88;;
49860;SDS011;35761;48.826;9.238;2022-12-10T02:33:33;33.42;;;18.30;;
49860;SDS011;35761;48.826;9.238;2022-12-10T02:36:07;35.95;;;18.77;;
49860;SDS011;35761;48.826;9.238;2022-12-10T02:38:37;28.25;;;18.50;;
49860;SDS011;35761;48.826;9.238;2022-12-10T02:41:08;37.55;;;18.85;;
49860;SDS011;35761;48.826;9.238;2022-12-10T02:43:42;27.77;;;18.73;;
49860;SDS011;35761;48.826;9.238;2022-12-10T02:46:13;27.40;;;17.70;;
49860;SDS011;35761;48.826;9.238;2022-12-10T02:48:42;29.88;;;18.83;;
49860;SDS011;35761;48.826;9.238;2022-12-10T02:51:11;31.27;;;18.88;;
49860;SDS011;35761;48.826;9.238;2022-12-10T02:53:41;31.80;;;18.80;;
49860;SDS011;35761;48.826;9.238;2022-12-10T02:56:13;28.67;;;18.25;;
49860;SDS011;35761;48.826;9.238;2022-12-10T02:58:49;30.95;;;19.88;;
49860;SDS011;35761;48.826;9.238;2022-12-10T03:01:28;32.70;;;19.48;;
49860;SDS011;35761;48.826;9.238;2022-12-10T03:04:04;28.42;;;17.15;;
49860;SDS011;35761;48.826;9.238;2022-12-10T03:06:37;31.58;;;17.90;;
49860;SDS011;35761;48.826;9.238;2022-12-10T03:09:11;31.30;;;18.50;;
49860;SDS011;35761;48.826;9.238;2022-12-10T03:11:43;30.13;;;18.52;;
49860;SDS011;35761;48.826;9.238;2022-12-10T03:14:14;30.65;;;19.00;;
49860;SDS011;35761;48.826;9.238;2022-12-10T03:16:48;32.75;;;18.67;;
49860;SDS011;35761;48.826;9.238;2022-12-10T03:19:19;26.55;;;17.92;;
49860;SDS011;35761;48.826;9.238;2022-12-10T03:21:51;29.40;;;18.27;;
49860;SDS011;35761;48.826;9.238;2022-12-10T03:24:21;26.48;;;16.50;;
49860;SDS011;35761;48.826;9.238;2022-12-10T03:26:50;28.65;;;17.98;;
49860;SDS011;35761;48.826;9.238;2022-12-10T03:29:21;30.70;;;17.95;;
49860;SDS011;35761;48.826;9.238;2022-12-10T03:31:52;31.33;;;19.10;;
49860;SDS011;35761;48.826;9.238;2022-12-10T03:34:22;31.50;;;18.85;;
49860;SDS011;35761;48.826;9.238;2022-12-10T03:36:51;32.20;;;17.95;;
49860;SDS011;35761;48.826;9.238;2022-12-10T03:39:20;29.05;;;17.48;;
49860;SDS011;35761;48.826;9.238;2022-12-10T03:41:48;36.70;;;18.98;;
49860;SDS011;35761;48.826;9.238;2022-12-10T03:44:26;30.20;;;18.80;;
49860;SDS011;35761;48.826;9.238;2022-12-10T03:46:57;29.63;;;16.85;;
49860;SDS011;35761;48.826;9.238;2022-12-10T03:49:27;28.35;;;17.17;;
49860;SDS011;35761;48.826;9.238;2022-12-10T03:51:55;32.40;;;18.52;;
49860;SDS011;35761;48.826;9.238;2022-12-10T03:54:24;29.23;;;18.60;;
49860;SDS011;35761;48.826;9.238;2022-12-10T03:56:53;30.20;;;19.10;;
49860;SDS011;35761;48.826;9.238;2022-12-10T03:59:22;29.52;;;18.20;;
49860;SDS011;35761;48.826;9.238;2022-12-10T04:01:50;30.30;;;18.67;;
49860;SDS011;35761;48.826;9.238;2022-12-10T04:04:21;32.95;;;18.13;;
49860;SDS011;35761;48.826;9.238;2022-12-10T04:06:50;31.08;;;18.98;;
49860;SDS011;35761;48.826;9.238;2022-12-10T04:09:19;30.40;;;18.63;;
49860;SDS011;35761;48.826;9.238;2022-12-10T04:11:48;30.25;;;17.75;;
49860;SDS011;35761;48.826;9.238;2022-12-10T04:14:17;28.75;;;17.63;;
49860;SDS011;35761;48.826;9.238;2022-12-10T04:17:03;28.80;;;17.40;;
49860;SDS011;35761;48.826;9.238;2022-12-10T04:19:33;29.85;;;18.58;;
49860;SDS011;35761;48.826;9.238;2022-12-10T04:22:02;31.13;;;18.65;;
49860;SDS011;35761;48.826;9.238;2022-12-10T04:24:48;31.83;;;18.50;;
49860;SDS011;35761;48.826;9.238;2022-12-10T04:27:35;30.67;;;19.35;;
49860;SDS011;35761;48.826;9.238;2022-12-10T04:30:06;31.17;;;18.55;;
49860;SDS011;35761;48.826;9.238;2022-12-10T04:32:38;31.15;;;18.15;;
49860;SDS011;35761;48.826;9.238;2022-12-10T04:35:08;31.65;;;18.85;;
49860;SDS011;35761;48.826;9.238;2022-12-10T04:37:37;30.30;;;17.63;;
49860;SDS011;35761;48.826;9.238;2022-12-10T04:40:06;30.13;;;18.85;;
49860;SDS011;35761;48.826;9.238;2022-12-10T04:42:36;32.08;;;18.13;;
49860;SDS011;35761;48.826;9.238;2022-12-10T04:45:05;30.35;;;18.25;;
49860;SDS011;35761;48.826;9.238;2022-12-10T04:47:34;31.48;;;18.23;;
49860;SDS011;35761;48.826;9.238;2022-12-10T04:50:03;32.55;;;19.13;;
49860;SDS011;35761;48.826;9.238;2022-12-10T04:52:34;28.90;;;18.33;;
49860;SDS011;35761;48.826;9.238;2022-12-10T04:55:03;30.92;;;18.52;;
49860;SDS011;35761;48.826;9.238;2022-12-10T04:57:33;28.48;;;18.08;;
49860;SDS011;35761;48.826;9.238;2022-12-10T05:00:02;28.85;;;18.55;;
49860;SDS011;35761;48.826;9.238;2022-12-10T05:02:31;31.30;;;19.95;;
49860;SDS011;35761;48.826;9.238;2022-12-10T05:04:59;32.30;;;20.25;;
49860;SDS011;35761;48.826;9.238;2022-12-10T05:07:28;31.45;;;18.85;;
49860;SDS011;35761;48.826;9.238;2022-12-10T05:09:58;28.80;;;18.33;;
49860;SDS011;35761;48.826;9.238;2022-12-10T05:12:27;27.67;;;17.67;;
49860;SDS011;35761;48.826;9.238;2022-12-10T05:14:56;30.23;;;18.60;;
49860;SDS011;35761;48.826;9.238;2022-12-10T05:17:24;31.67;;;19.75;;
49860;SDS011;35761;48.826;9.238;2022-12-10T05:19:54;32.53;;;19.00;;
49860;SDS011;35761;48.826;9.238;2022-12-10T05:22:23;36.20;;;20.13;;
49860;SDS011;35761;48.826;9.238;2022-12-10T05:25:10;28.40;;;18.02;;
49860;SDS011;35761;48.826;9.238;2022-12-10T05:27:39;31.80;;;18.60;;
49860;SDS011;35761;48.826;9.238;2022-12-10T05:30:08;34.33;;;19.58;;
49860;SDS011;35761;48.826;9.238;2022-12-10T05:32:38;36.25;;;21.10;;
49860;SDS011;35761;48.826;9.238;2022-12-10T05:35:07;33.78;;;20.55;;
49860;SDS011;35761;48.826;9.238;2022-12-10T05:37:35;32.33;;;19.70;;
49860;SDS011;35761;48.826;9.238;2022-12-10T05:40:05;35.08;;;18.67;;
49860;SDS011;35761;48.826;9.238;2022-12-10T05:42:36;31.27;;;19.20;;
49860;SDS011;35761;48.826;9.238;2022-12-10T05:45:06;32.20;;;20.15;;
49860;SDS011;35761;48.826;9.238;2022-12-10T05:47:35;31.45;;;18.92;;
49860;SDS011;35761;48.826;9.238;2022-12-10T05:50:04;32.28;;;18.67;;
49860;SDS011;35761;48.826;9.238;2022-12-10T05:52:33;31.20;;;20.65;;
49860;SDS011;35761;48.826;9.238;2022-12-10T05:55:02;29.90;;;17.80;;
49860;SDS011;35761;48.826;9.238;2022-12-10T05:57:31;32.25;;;19.67;;
49860;SDS011;35761;48.826;9.238;2022-12-10T06:00:02;34.47;;;19.95;;
49860;SDS011;35761;48.826;9.238;2022-12-10T06:02:37;29.60;;;19.38;;
49860;SDS011;35761;48.826;9.238;2022-12-10T06:05:06;29.60;;;18.60;;
49860;SDS011;35761;48.826;9.238;2022-12-10T06:07:36;32.83;;;19.33;;
49860;SDS011;35761;48.826;9.238;2022-12-10T06:10:04;34.58;;;19.92;;
49860;SDS011;35761;48.826;9.238;2022-12-10T06:12:34;33.05;;;19.88;;
49860;SDS011;35761;48.826;9.238;2022-12-10T06:15:04;33.90;;;19.27;;
49860;SDS011;35761;48.826;9.238;2022-12-10T06:17:34;32.28;;;19.67;;
49860;SDS011;35761;48.826;9.238;2022-12-10T06:20:03;32.15;;;18.75;;
49860;SDS011;35761;48.826;9.238;2022-12-10T06:22:33;32.22;;;19.08;;
49860;SDS011;35761;48.826;9.238;2022-12-10T06:25:02;34.30;;;19.33;;
49860;SDS011;35761;48.826;9.238;2022-12-10T06:27:32;30.92;;;19.30;;
49860;SDS011;35761;48.826;9.238;2022-12-10T06:30:01;29.27;;;18.80;;
49860;SDS011;35761;48.826;9.238;2022-12-10T06:32:32;32.40;;;19.52;;
49860;SDS011;35761;48.826;9.238;2022-12-10T06:35:01;32.72;;;19.02;;
49860;SDS011;35761;48.826;9.238;2022-12-10T06:37:31;31.63;;;19.75;;
49860;SDS011;35761;48.826;9.238;2022-12-10T06:40:00;34.25;;;19.73;;
49860;SDS011;35761;48.826;9.238;2022-12-10T06:42:29;33.00;;;19.80;;
49860;SDS011;35761;48.826;9.238;2022-12-10T06:44:58;31.13;;;17.98;;
49860;SDS011;35761;48.826;9.238;2022-12-10T06:47:28;32.40;;;18.95;;
49860;SDS011;35761;48.826;9.238;2022-12-10T06:49:57;35.85;;;22.00;;
49860;SDS011;35761;48.826;9.238;2022-12-10T06:52:25;35.38;;;21.05;;
49860;SDS011;35761;48.826;9.238;2022-12-10T06:54:54;30.27;;;18.83;;
49860;SDS011;35761;48.826;9.238;2022-12-10T06:57:23;36.90;;;19.05;;
49860;SDS011;35761;48.826;9.238;2022-12-10T06:59:52;30.33;;;19.05;;
49860;SDS011;35761;48.826;9.238;2022-12-10T07:02:21;34.92;;;18.88;;
49860;SDS011;35761;48.826;9.238;2022-12-10T07:04:51;34.80;;;20.48;;
49860;SDS011;35761;48.826;9.238;2022-12-10T07:07:22;31.42;;;18.35;;
49860;SDS011;35761;48.826;9.238;2022-12-10T07:09:51;31.25;;;19.30;;
49860;SDS011;35761;48.826;9.238;2022-12-10T07:12:20;31.73;;;19.83;;
49860;SDS011;35761;48.826;9.238;2022-12-10T07:14:48;30.63;;;19.77;;
49860;SDS011;35761;48.826;9.238;2022-12-10T07:17:17;32.08;;;18.58;;
49860;SDS011;35761;48.826;9.238;2022-12-10T07:19:46;35.10;;;19.48;;
49860;SDS011;35761;48.826;9.238;2022-12-10T07:22:16;31.70;;;19.95;;
49860;SDS011;35761;48.826;9.238;2022-12-10T07:24:45;34.88;;;18.85;;
49860;SDS011;35761;48.826;9.238;2022-12-10T07:27:16;33.30;;;20.42;;
49860;SDS011;35761;48.826;9.238;2022-12-10T07:29:45;33.08;;;19.15;;
49860;SDS011;35761;48.826;9.238;2022-12-10T07:32:14;28.92;;;18.60;;
49860;SDS011;35761;48.826;9.238;2022-12-10T07:34:43;32.80;;;19.40;;
49860;SDS011;35761;48.826;9.238;2022-12-10T07:37:11;32.33;;;20.35;;
49860;SDS011;35761;48.826;9.238;2022-12-10T07:39:41;31.70;;;19.30;;
49860;SDS011;35761;48.826;9.238;2022-12-10T07:42:11;28.25;;;19.25;;
49860;SDS011;35761;48.826;9.238;2022-12-10T07:44:39;36.25;;;19.77;;
49860;SDS011;35761;48.826;9.238;2022-12-10T07:47:14;32.35;;;19.95;;
49860;SDS011;35761;48.826;9.238;2022-12-10T07:49:43;33.75;;;19.92;;
49860;SDS011;35761;48.826;9.238;2022-12-10T07:52:12;33.08;;;19.17;;
49860;SDS011;35761;48.826;9.238;2022-12-10T07:54:42;30.55;;;18.50;;
49860;SDS011;35761;48.826;9.238;2022-12-10T07:57:11;32.42;;;19.85;;
49860;SDS011;35761;48.826;9.238;2022-12-10T07:59:40;32.15;;;19.48;;
49860;SDS011;35761;48.826;9.238;2022-12-10T08:02:09;35.67;;;20.73;;
49860;SDS011;35761;48.826;9.238;2022-12-10T08:04:39;33.38;;;20.27;;
49860;SDS011;35761;48.826;9.238;2022-12-10T08:07:09;36.30;;;21.27;;
49860;SDS011;35761;48.826;9.238;2022-12-10T08:09:38;32.25;;;19.98;;
49860;SDS011;35761;48.826;9.238;2022-12-10T08:12:08;32.10;;;19.85;;
49860;SDS011;35761;48.826;9.238;2022-12-10T08:14:37;33.15;;;20.17;;
49860;SDS011;35761;48.826;9.238;2022-12-10T08:17:05;32.65;;;19.35;;
49860;SDS011;35761;48.826;9.238;2022-12-10T08:19:34;36.53;;;21.33;;
49860;SDS011;35761;48.826;9.238;2022-12-10T08:22:03;33.38;;;21.25;;
49860;SDS011;35761;48.826;9.238;2022-12-10T08:24:31;36.95;;;20.80;;
49860;SDS011;35761;48.826;9.238;2022-12-10T08:27:01;33.10;;;19.90;;
49860;SDS011;35761;48.826;9.238;2022-12-10T08:29:31;37.38;;;20.70;;
49860;SDS011;35761;48.826;9.238;2022-12-10T08:32:00;33.42;;;20.95;;
49860;SDS011;35761;48.826;9.238;2022-12-10T08:34:29;32.28;;;20.63;;
49860;SDS011;35761;48.826;9.238;2022-12-10T08:36:58;32.00;;;20.15;;
49860;SDS011;35761;48.826;9.238;2022-12-10T08:39:26;34.47;;;21.10;;
49860;SDS011;35761;48.826;9.238;2022-12-10T08:41:55;35.60;;;20.02;;
49860;SDS011;35761;48.826;9.238;2022-12-10T08:44:24;30.38;;;20.08;;
49860;SDS011;35761;48.826;9.238;2022-12-10T08:46:54;33.28;;;20.23;;
49860;SDS011;35761;48.826;9.238;2022-12-10T08:49:23;32.85;;;20.25;;
49860;SDS011;35761;48.826;9.238;2022-12-10T08:51:52;40.25;;;20.77;;
49860;SDS011;35761;48.826;9.238;2022-12-10T08:54:20;33.65;;;20.88;;
49860;SDS011;35761;48.826;9.238;2022-12-10T08:56:49;34.67;;;20.65;;
49860;SDS011;35761;48.826;9.238;2022-12-10T08:59:18;31.48;;;20.42;;
49860;SDS011;35761;48.826;9.238;2022-12-10T09:01:47;38.72;;;21.10;;
49860;SDS011;35761;48.826;9.238;2022-12-10T09:04:23;30.67;;;19.67;;
49860;SDS011;35761;48.826;9.238;2022-12-10T09:06:51;32.58;;;20.50;;
49860;SDS011;35761;48.826;9.238;2022-12-10T09:09:20;39.33;;;20.85;;
49860;SDS011;35761;48.826;9.238;2022-12-10T09:11:49;30.00;;;20.30;;
49860;SDS011;35761;48.826;9.238;2022-12-10T09:14:18;33.72;;;22.05;;
49860;SDS011;35761;48.826;9.238;2022-12-10T09:16:47;32.95;;;20.35;;
49860;SDS011;35761;48.826;9.238;2022-12-10T09:19:18;35.45;;;21.80;;
49860;SDS011;35761;48.826;9.238;2022-12-10T09:21:49;35.65;;;20.77;;
49860;SDS011;35761;48.826;9.238;2022-12-10T09:24:18;35.47;;;21.42;;
49860;SDS011;35761;48.826;9.238;2022-12-10T09:26:46;36.05;;;21.20;;
49860;SDS011;35761;48.826;9.238;2022-12-10T09:29:15;35.13;;;21.45;;
49860;SDS011;35761;48.826;9.238;2022-12-10T09:31:44;33.90;;;20.25;;
49860;SDS011;35761;48.826;9.238;2022-12-10T09:34:15;34.40;;;20.10;;
49860;SDS011;35761;48.826;9.238;2022-12-10T09:36:44;39.17;;;20.60;;
49860;SDS011;35761;48.826;9.238;2022-12-10T09:39:14;35.60;;;20.92;;
49860;SDS011;35761;48.826;9.238;2022-12-10T09:41:55;36.20;;;21.73;;
49860;SDS011;35761;48.826;9.238;2022-12-10T09:44:32;32.90;;;21.67;;
49860;SDS011;35761;48.826;9.238;2022-12-10T09:47:07;39.20;;;21.30;;
49860;SDS011;35761;48.826;9.238;2022-12-10T09:49:39;28.95;;;19.10;;
49860;SDS011;35761;48.826;9.238;2022-12-10T09:52:16;34.00;;;20.05;;
49860;SDS011;35761;48.826;9.238;2022-12-10T09:54:49;36.05;;;21.67;;
49860;SDS011;35761;48.826;9.238;2022-12-10T09:57:21;33.28;;;20.33;;
49860;SDS011;35761;48.826;9.238;2022-12-10T09:59:52;30.33;;;19.52;;
49860;SDS011;35761;48.826;9.238;2022-12-10T10:02:22;31.23;;;19.98;;
49860;SDS011;35761;48.826;9.238;2022-12-10T10:04:55;31.88;;;19.65;;
49860;SDS011;35761;48.826;9.238;2022-12-10T10:07:37;33.03;;;20.83;;
49860;SDS011;35761;48.826;9.238;2022-12-10T10:10:19;29.67;;;19.23;;
49860;SDS011;35761;48.826;9.238;2022-12-10T10:12:54;33.72;;;19.75;;
49860;SDS011;35761;48.826;9.238;2022-12-10T10:15:25;31.80;;;18.95;;
49860;SDS011;35761;48.826;9.238;2022-12-10T10:17:58;31.40;;;19.25;;
49860;SDS011;35761;48.826;9.238;2022-12-10T10:20:32;30.85;;;19.05;;
49860;SDS011;35761;48.826;9.238;2022-12-10T10:23:00;31.85;;;20.25;;
49860;SDS011;35761;48.826;9.238;2022-12-10T10:25:30;52.58;;;27.08;;
49860;SDS011;35761;48.826;9.238;2022-12-10T10:27:59;29.88;;;18.98;;
49860;SDS011;35761;48.826;9.238;2022-12-10T10:30:28;32.13;;;18.27;;
49860;SDS011;35761;48.826;9.238;2022-12-10T10:32:57;28.42;;;17.77;;
49860;SDS011;35761;48.826;9.238;2022-12-10T10:35:30;30.05;;;18.30;;
49860;SDS011;35761;48.826;9.238;2022-12-10T10:38:01;29.98;;;19.00;;
49860;SDS011;35761;48.826;9.238;2022-12-10T10:40:39;30.48;;;19.48;;
49860;SDS011;35761;48.826;9.238;2022-12-10T10:43:12;30.40;;;17.90;;
49860;SDS011;35761;48.826;9.238;2022-12-10T10:45:43;31.50;;;19.52;;
49860;SDS011;35761;48.826;9.238;2022-12-10T10:48:18;31.52;;;19.08;;
49860;SDS011;35761;48.826;9.238;2022-12-10T10:50:51;32.53;;;19.05;;
49860;SDS011;35761;48.826;9.238;2022-12-10T10:53:28;31.13;;;18.30;;
49860;SDS011;35761;48.826;9.238;2022-12-10T10:56:00;32.50;;;18.95;;
49860;SDS011;35761;48.826;9.238;2022-12-10T10:58:34;29.95;;;19.05;;
49860;SDS011;35761;48.826;9.238;2022-12-10T11:01:04;29.85;;;18.90;;
49860;SDS011;35761;48.826;9.238;2022-12-10T11:03:35;30.23;;;18.23;;
49860;SDS011;35761;48.826;9.238;2022-12-10T11:06:05;31.45;;;18.73;;
49860;SDS011;35761;48.826;9.238;2022-12-10T11:08:37;29.35;;;18.35;;
49860;SDS011;35761;48.826;9.238;2022-12-10T11:11:10;31.05;;;19.10;;
49860;SDS011;35761;48.826;9.238;2022-12-10T11:13:40;31.50;;;18.30;;
49860;SDS011;35761;48.826;9.238;2022-12-10T11:16:10;31.25;;;18.85;;
49860;SDS011;35761;48.826;9.238;2022-12-10T11:18:43;30.90;;;18.43;;
49860;SDS011;35761;48.826;9.238;2022-12-10T11:21:20;28.23;;;17.83;;
49860;SDS011;35761;48.826;9.238;2022-12-10T11:23:51;28.63;;;17.98;;
49860;SDS011;35761;48.826;9.238;2022-12-10T11:29:11;33.28;;;20.17;;
49860;SDS011;35761;48.826;9.238;2022-12-10T11:31:49;31.10;;;19.10;;
49860;SDS011;35761;48.826;9.238;2022-12-10T11:34:27;30.73;;;19.98;;
49860;SDS011;35761;48.826;9.238;2022-12-10T11:37:04;32.90;;;19.48;;
49860;SDS011;35761;48.826;9.238;2022-12-10T11:39:50;30.02;;;18.77;;
49860;SDS011;35761;48.826;9.238;2022-12-10T11:42:28;35.20;;;19.55;;
49860;SDS011;35761;48.826;9.238;2022-12-10T11:45:02;32.15;;;19.90;;
49860;SDS011;35761;48.826;9.238;2022-12-10T11:50:13;28.83;;;17.92;;
49860;SDS011;35761;48.826;9.238;2022-12-10T11:52:53;30.08;;;17.45;;
49860;SDS011;35761;48.826;9.238;2022-12-10T11:55:46;28.50;;;17.88;;
49860;SDS011;35761;48.826;9.238;2022-12-10T12:01:17;28.67;;;17.67;;
49860;SDS011;35761;48.826;9.238;2022-12-10T12:03:53;31.48;;;18.90;;
49860;SDS011;35761;48.826;9.238;2022-12-10T12:06:35;30.27;;;18.25;;
49860;SDS011;35761;48.826;9.238;2022-12-10T12:09:23;28.52;;;17.48;;
49860;SDS011;35761;48.826;9.238;2022-12-10T12:12:01;29.95;;;18.63;;
49860;SDS011;35761;48.826;9.238;2022-12-10T12:14:36;27.15;;;18.33;;
49860;SDS011;35761;48.826;9.238;2022-12-10T12:17:09;29.08;;;18.20;;
49860;SDS011;35761;48.826;9.238;2022-12-10T12:19:42;28.92;;;17.75;;
49860;SDS011;35761;48.826;9.238;2022-12-10T12:22:14;26.70;;;16.83;;
49860;SDS011;35761;48.826;9.238;2022-12-10T12:24:44;25.55;;;16.63;;
49860;SDS011;35761;48.826;9.238;2022-12-10T12:27:16;24.67;;;15.68;;
49860;SDS011;35761;48.826;9.238;2022-12-10T12:29:57;25.15;;;15.50;;
49860;SDS011;35761;48.826;9.238;2022-12-10T12:32:31;28.95;;;15.77;;
49860;SDS011;35761;48.826;9.238;2022-12-10T12:35:09;25.40;;;16.48;;
49860;SDS011;35761;48.826;9.238;2022-12-10T12:37:40;28.83;;;16.25;;
49860;SDS011;35761;48.826;9.238;2022-12-10T12:40:13;33.05;;;16.15;;
49860;SDS011;35761;48.826;9.238;2022-12-10T12:42:45;24.67;;;15.57;;
49860;SDS011;35761;48.826;9.238;2022-12-10T12:45:19;27.70;;;17.55;;
49860;SDS011;35761;48.826;9.238;2022-12-10T12:47:50;29.13;;;16.55;;
49860;SDS011;35761;48.826;9.238;2022-12-10T12:50:28;25.88;;;15.93;;
49860;SDS011;35761;48.826;9.238;2022-12-10T12:53:09;26.23;;;15.88;;
49860;SDS011;35761;48.826;9.238;2022-12-10T12:55:43;28.25;;;17.15;;
49860;SDS011;35761;48.826;9.238;2022-12-10T12:58:16;28.17;;;16.23;;
49860;SDS011;35761;48.826;9.238;2022-12-10T13:00:51;24.98;;;15.23;;
49860;SDS011;35761;48.826;9.238;2022-12-10T13:03:29;28.73;;;17.23;;
49860;SDS011;35761;48.826;9.238;2022-12-10T13:06:17;31.08;;;19.52;;
49860;SDS011;35761;48.826;9.238;2022-12-10T13:08:50;26.10;;;16.45;;
49860;SDS011;35761;48.826;9.238;2022-12-10T13:11:28;26.38;;;16.10;;
49860;SDS011;35761;48.826;9.238;2022-12-10T13:14:03;28.15;;;16.23;;
49860;SDS011;35761;48.826;9.238;2022-12-10T13:19:51;26.02;;;15.40;;
49860;SDS011;35761;48.826;9.238;2022-12-10T13:25:12;25.60;;;15.82;;
49860;SDS011;35761;48.826;9.238;2022-12-10T13:27:42;26.50;;;16.52;;
49860;SDS011;35761;48.826;9.238;2022-12-10T13:30:27;27.38;;;15.05;;
49860;SDS011;35761;48.826;9.238;2022-12-10T13:33:09;26.45;;;15.13;;
49860;SDS011;35761;48.826;9.238;2022-12-10T13:35:55;25.92;;;16.05;;
49860;SDS011;35761;48.826;9.238;2022-12-10T13:38:38;27.63;;;16.30;;
49860;SDS011;35761;48.826;9.238;2022-12-10T13:41:08;24.05;;;15.90;;
49860;SDS011;35761;48.826;9.238;2022-12-10T13:43:56;25.17;;;15.95;;
49860;SDS011;35761;48.826;9.238;2022-12-10T13:46:54;29.08;;;15.18;;
49860;SDS011;35761;48.826;9.238;2022-12-10T13:49:25;23.55;;;15.00;;
49860;SDS011;35761;48.826;9.238;2022-12-10T13:51:57;25.25;;;15.23;;
49860;SDS011;35761;48.826;9.238;2022-12-10T13:57:30;27.25;;;17.05;;
49860;SDS011;35761;48.826;9.238;2022-12-10T14:00:10;31.67;;;18.20;;
49860;SDS011;35761;48.826;9.238;2022-12-10T14:02:53;30.90;;;17.52;;
49860;SDS011;35761;48.826;9.238;2022-12-10T14:05:33;27.40;;;17.23;;
49860;SDS011;35761;48.826;9.238;2022-12-10T14:08:17;32.47;;;17.95;;
49860;SDS011;35761;48.826;9.238;2022-12-10T14:10:48;31.75;;;18.67;;
49860;SDS011;35761;48.826;9.238;2022-12-10T14:13:18;31.45;;;19.10;;
49860;SDS011;35761;48.826;9.238;2022-12-10T14:15:58;33.10;;;17.73;;
49860;SDS011;35761;48.826;9.238;2022-12-10T14:18:29;30.00;;;18.48;;
49860;SDS011;35761;48.826;9.238;2022-12-10T14:20:58;31.58;;;18.83;;
49860;SDS011;35761;48.826;9.238;2022-12-10T14:23:33;30.80;;;17.77;;
49860;SDS011;35761;48.826;9.238;2022-12-10T14:26:13;31.65;;;18.20;;
49860;SDS011;35761;48.826;9.238;2022-12-10T14:28:44;32.47;;;19.13;;
49860;SDS011;35761;48.826;9.238;2022-12-10T14:31:14;29.25;;;18.17;;
49860;SDS011;35761;48.826;9.238;2022-12-10T14:33:45;35.20;;;18.42;;
49860;SDS011;35761;48.826;9.238;2022-12-10T14:36:16;32.85;;;19.30;;
49860;SDS011;35761;48.826;9.238;2022-12-10T14:38:50;21.50;;;12.98;;
49860;SDS011;35761;48.826;9.238;2022-12-10T14:41:20;31.20;;;18.30;;
49860;SDS011;35761;48.826;9.238;2022-12-10T14:43:50;31.88;;;18.17;;
49860;SDS011;35761;48.826;9.238;2022-12-10T14:46:20;30.38;;;19.13;;
49860;SDS011;35761;48.826;9.238;2022-12-10T14:48:52;32.55;;;18.58;;
49860;SDS011;35761;48.826;9.238;2022-12-10T14:51:22;29.52;;;17.90;;
49860;SDS011;35761;48.826;9.238;2022-12-10T14:53:53;30.27;;;17.98;;
49860;SDS011;35761;48.826;9.238;2022-12-10T14:56:24;30.30;;;17.55;;
49860;SDS011;35761;48.826;9.238;2022-12-10T14:58:56;30.45;;;17.70;;
49860;SDS011;35761;48.826;9.238;2022-12-10T15:01:29;31.20;;;19.30;;
49860;SDS011;35761;48.826;9.238;2022-12-10T15:04:00;33.05;;;18.13;;
49860;SDS011;35761;48.826;9.238;2022-12-10T15:06:33;28.48;;;17.90;;
49860;SDS011;35761;48.826;9.238;2022-12-10T15:09:05;33.00;;;17.83;;